Time;durP1;ratioP1;P1;durP2;ratioP2;P2;SDS_P1;SDS_P2;PMS_P1;PMS_P2;Temp;Humidity;BMP_temperature;BMP_pressure;BME280_temperature;BME280_humidity;BME280_pressure;Samples;Min_cycle;Max_cycle;Signal;HPM_P1;HPM_P2
2022/03/24 00:00:39;;;;;;;2.17;1.58;;;22.90;38.40;;;;;;5003908;28;20397;-62
2022/03/24 00:03:06;;;;;;;2.80;1.65;;;22.90;38.30;;;;;;5002656;28;20125;-64
2022/03/24 00:05:31;;;;;;;2.58;1.70;;;22.90;38.40;;;;;;5001788;28;20037;-64
2022/03/24 00:07:57;;;;;;;2.30;1.60;;;22.80;38.40;;;;;;5001279;28;20030;-62
2022/03/24 00:10:23;;;;;;;2.13;1.40;;;22.80;38.40;;;;;;5005421;28;20135;-60
2022/03/24 00:12:51;;;;;;;2.25;1.50;;;22.80;38.40;;;;;;5002463;28;20121;-64
2022/03/24 00:15:16;;;;;;;1.92;1.33;;;22.80;38.30;;;;;;5002030;28;20064;-64
2022/03/24 00:17:42;;;;;;;1.85;1.38;;;22.80;38.40;;;;;;4999889;28;20034;-63
2022/03/24 00:20:08;;;;;;;2.28;1.45;;;22.80;38.40;;;;;;5004439;28;20029;-60
2022/03/24 00:22:33;;;;;;;2.50;1.40;;;22.80;38.40;;;;;;5003456;28;20501;-64
2022/03/24 00:24:59;;;;;;;2.30;1.60;;;22.80;38.40;;;;;;5004549;28;20034;-62
2022/03/24 00:27:25;;;;;;;2.55;1.50;;;22.80;38.40;;;;;;5002177;28;20525;-64
2022/03/24 00:29:51;;;;;;;2.40;1.50;;;22.80;38.40;;;;;;5003613;28;20042;-64
2022/03/24 00:32:16;;;;;;;2.78;1.60;;;22.70;38.40;;;;;;5004251;28;20405;-64
2022/03/24 00:34:42;;;;;;;2.45;1.58;;;22.70;38.40;;;;;;5003073;28;20029;-63
2022/03/24 00:37:09;;;;;;;2.35;1.40;;;22.70;38.40;;;;;;5001620;28;20030;-63
2022/03/24 00:39:35;;;;;;;2.53;1.55;;;22.70;38.40;;;;;;5002303;28;20021;-60
2022/03/24 00:42:02;;;;;;;2.67;1.70;;;22.70;38.40;;;;;;5004715;28;20517;-64
2022/03/24 00:44:28;;;;;;;2.25;1.40;;;22.70;38.40;;;;;;5002279;28;20021;-62
2022/03/24 00:46:55;;;;;;;2.55;1.50;;;22.70;38.40;;;;;;5000947;28;20034;-63
2022/03/24 00:49:21;;;;;;;1.90;1.35;;;22.70;38.40;;;;;;5004787;28;20037;-63
2022/03/24 00:51:48;;;;;;;2.30;1.60;;;22.60;38.40;;;;;;5005563;28;20244;-67
2022/03/24 00:54:16;;;;;;;2.20;1.40;;;22.60;38.40;;;;;;5001563;28;20026;-60
2022/03/24 00:56:42;;;;;;;2.25;1.60;;;22.60;38.40;;;;;;5001148;28;20036;-64
2022/03/24 00:59:08;;;;;;;2.17;1.50;;;22.60;38.40;;;;;;5003053;28;20025;-64
2022/03/24 01:01:34;;;;;;;2.00;1.30;;;22.60;38.40;;;;;;5003425;28;20045;-64
2022/03/24 01:04:00;;;;;;;1.90;1.30;;;22.60;38.40;;;;;;5001736;28;20034;-63
2022/03/24 01:06:26;;;;;;;1.98;1.35;;;22.60;38.40;;;;;;5002178;28;20529;-64
2022/03/24 01:08:52;;;;;;;2.97;1.52;;;22.60;38.40;;;;;;4997501;28;20117;-61
2022/03/24 01:11:18;;;;;;;3.20;1.60;;;22.60;38.40;;;;;;5003437;28;20083;-62
2022/03/24 01:13:44;;;;;;;2.45;1.40;;;22.60;38.40;;;;;;5000018;28;20038;-66
2022/03/24 01:16:10;;;;;;;2.60;1.50;;;22.50;38.40;;;;;;5002702;28;20109;-64
2022/03/24 01:18:37;;;;;;;2.20;1.50;;;22.50;38.40;;;;;;5000354;28;20124;-61
2022/03/24 01:21:04;;;;;;;2.20;1.42;;;22.50;38.50;;;;;;5004682;28;20376;-65
2022/03/24 01:23:30;;;;;;;1.80;1.40;;;22.50;38.50;;;;;;5000082;28;20394;-63
2022/03/24 01:26:00;;;;;;;2.10;1.48;;;22.50;38.50;;;;;;5003116;28;20547;-63
2022/03/24 01:28:27;;;;;;;2.08;1.30;;;22.50;38.50;;;;;;5000697;28;20092;-64
2022/03/24 01:30:54;;;;;;;3.22;1.60;;;22.50;38.50;;;;;;5003706;28;20446;-63
2022/03/24 01:33:20;;;;;;;2.92;1.75;;;22.50;38.50;;;;;;4998903;28;20085;-64
2022/03/24 01:35:46;;;;;;;3.45;1.50;;;22.50;38.50;;;;;;5002635;28;20034;-60
2022/03/24 01:38:11;;;;;;;2.10;1.45;;;22.50;38.50;;;;;;5000587;28;20136;-66
2022/03/24 01:40:37;;;;;;;1.95;1.40;;;22.50;38.50;;;;;;5000845;28;20026;-63
2022/03/24 01:43:04;;;;;;;2.03;1.42;;;22.40;38.50;;;;;;4994074;28;20018;-64
2022/03/24 01:45:30;;;;;;;2.42;1.60;;;22.40;38.50;;;;;;4985826;28;20474;-64
2022/03/24 01:47:56;;;;;;;2.03;1.30;;;22.40;38.50;;;;;;4987945;28;20030;-64
2022/03/24 01:50:21;;;;;;;2.53;1.52;;;22.40;38.50;;;;;;5002944;28;20467;-63
2022/03/24 01:52:47;;;;;;;2.20;1.50;;;22.40;38.50;;;;;;5002652;28;20041;-59
2022/03/24 01:55:13;;;;;;;2.03;1.42;;;22.40;39.00;;;;;;5001625;28;20505;-64
2022/03/24 01:57:40;;;;;;;1.60;1.13;;;22.40;38.50;;;;;;5002498;28;20088;-61
2022/03/24 02:00:07;;;;;;;2.15;1.48;;;22.40;38.60;;;;;;5000128;28;20055;-61
2022/03/24 02:02:33;;;;;;;2.45;1.42;;;22.40;38.50;;;;;;5000023;28;20493;-63
2022/03/24 02:04:58;;;;;;;2.25;1.50;;;22.40;38.60;;;;;;5000034;28;20022;-63
2022/03/24 02:07:24;;;;;;;2.45;1.42;;;22.40;38.60;;;;;;5001132;28;20040;-63
2022/03/24 02:09:50;;;;;;;2.60;1.52;;;22.40;38.60;;;;;;5001684;28;20353;-64
2022/03/24 02:12:15;;;;;;;2.00;1.40;;;22.40;38.60;;;;;;5001016;28;20042;-66
2022/03/24 02:14:42;;;;;;;2.08;1.55;;;22.40;38.60;;;;;;5000764;28;20092;-62
2022/03/24 02:17:08;;;;;;;2.00;1.45;;;22.30;38.50;;;;;;5000960;28;20454;-64
2022/03/24 02:19:36;;;;;;;1.70;1.30;;;22.30;38.60;;;;;;5001816;28;20415;-66
2022/03/24 02:22:15;;;;;;;2.60;1.42;;;22.30;38.60;;;;;;5001208;28;20398;-67
2022/03/24 02:24:40;;;;;;;2.17;1.58;;;22.30;38.50;;;;;;5002227;28;20783;-61
2022/03/24 02:27:06;;;;;;;2.28;1.50;;;22.30;38.60;;;;;;4995518;28;20046;-63
2022/03/24 02:29:32;;;;;;;2.33;1.60;;;22.30;38.60;;;;;;4998654;28;20044;-66
2022/03/24 02:31:58;;;;;;;2.22;1.48;;;22.30;38.60;;;;;;5000947;28;20038;-63
2022/03/24 02:34:47;;;;;;;2.45;1.52;;;22.30;38.60;;;;;;5017440;28;20109;-64
2022/03/24 02:37:21;;;;;;;2.22;1.50;;;22.30;38.60;;;;;;4994349;28;20030;-66
2022/03/24 02:39:49;;;;;;;2.20;1.40;;;22.30;38.60;;;;;;5002383;28;20067;-65
2022/03/24 02:42:18;;;;;;;1.85;1.33;;;22.30;38.60;;;;;;5004756;28;20054;-64
2022/03/24 02:44:45;;;;;;;1.97;1.30;;;22.20;38.50;;;;;;4999434;28;20160;-65
2022/03/24 02:47:13;;;;;;;2.25;1.42;;;22.30;38.60;;;;;;4997091;28;20291;-64
2022/03/24 02:49:40;;;;;;;2.22;1.42;;;22.30;38.60;;;;;;5000983;28;20447;-63
2022/03/24 02:52:07;;;;;;;1.77;1.27;;;22.20;38.60;;;;;;5002378;28;20032;-65
2022/03/24 02:54:33;;;;;;;2.40;1.55;;;22.20;38.60;;;;;;5003825;28;20041;-62
2022/03/24 02:57:00;;;;;;;2.47;1.30;;;22.20;38.60;;;;;;5003635;28;20144;-66
2022/03/24 02:59:26;;;;;;;1.73;1.33;;;22.20;38.60;;;;;;5004714;28;20061;-63
2022/03/24 03:02:13;;;;;;;2.28;1.60;;;22.20;38.60;;;;;;5004722;28;20084;-62
2022/03/24 03:04:40;;;;;;;1.98;1.30;;;22.20;38.60;;;;;;5006250;28;20431;-63
2022/03/24 03:07:06;;;;;;;1.95;1.30;;;22.20;38.60;;;;;;4998740;28;20044;-63
2022/03/24 03:09:33;;;;;;;2.30;1.30;;;22.20;38.70;;;;;;5003604;28;20449;-62
2022/03/24 03:12:00;;;;;;;2.78;1.48;;;22.10;38.60;;;;;;5008256;28;20656;-63
2022/03/24 03:14:29;;;;;;;2.08;1.30;;;22.10;38.60;;;;;;5003810;28;20038;-64
2022/03/24 03:16:57;;;;;;;1.58;1.20;;;22.10;38.60;;;;;;5003517;28;20109;-66
2022/03/24 03:19:23;;;;;;;1.80;1.20;;;22.10;38.60;;;;;;5004080;28;20022;-66
2022/03/24 03:21:49;;;;;;;1.50;1.20;;;22.10;38.60;;;;;;5005325;28;20128;-62
2022/03/24 03:24:16;;;;;;;2.03;1.30;;;22.10;38.60;;;;;;5006537;28;20040;-61
2022/03/24 03:26:42;;;;;;;2.25;1.30;;;22.10;38.60;;;;;;5002714;28;20084;-60
2022/03/24 03:29:08;;;;;;;1.40;1.10;;;22.10;38.60;;;;;;5001113;28;20026;-62
2022/03/24 03:31:35;;;;;;;1.75;1.27;;;22.10;38.60;;;;;;5004772;28;20198;-64
2022/03/24 03:34:02;;;;;;;2.13;1.40;;;22.10;38.60;;;;;;5003414;28;20101;-60
2022/03/24 03:36:28;;;;;;;1.63;1.20;;;22.10;38.60;;;;;;5005947;28;20018;-63
2022/03/24 03:38:54;;;;;;;2.10;1.20;;;22.10;38.60;;;;;;5004397;28;20036;-66
2022/03/24 03:41:22;;;;;;;1.48;1.08;;;22.10;38.70;;;;;;5005753;28;20402;-66
2022/03/24 03:43:48;;;;;;;2.80;1.52;;;22.10;38.70;;;;;;5006227;28;20470;-63
2022/03/24 03:46:14;;;;;;;1.98;1.35;;;22.10;38.60;;;;;;5000359;28;20038;-67
2022/03/24 03:48:40;;;;;;;2.10;1.30;;;22.10;38.60;;;;;;5006118;28;20177;-64
2022/03/24 03:51:07;;;;;;;1.60;1.20;;;22.10;38.70;;;;;;5004987;28;20120;-64
2022/03/24 03:53:36;;;;;;;1.83;1.30;;;22.10;38.70;;;;;;5006872;28;20034;-59
2022/03/24 03:56:04;;;;;;;2.75;1.30;;;22.10;38.70;;;;;;5003822;28;20061;-63
2022/03/24 03:58:30;;;;;;;1.90;1.23;;;22.00;38.60;;;;;;5004871;28;20381;-60
2022/03/24 04:00:56;;;;;;;2.17;1.35;;;22.10;38.70;;;;;;5001130;28;20045;-62
2022/03/24 04:03:29;;;;;;;2.65;1.40;;;22.00;38.60;;;;;;5004748;28;20035;-63
2022/03/24 04:05:58;;;;;;;1.67;1.20;;;22.00;38.60;;;;;;5003314;28;20018;-59
2022/03/24 04:08:24;;;;;;;1.65;1.20;;;22.00;38.60;;;;;;5004778;28;20049;-64
2022/03/24 04:10:50;;;;;;;1.95;1.38;;;22.00;38.60;;;;;;5001752;28;20109;-63
2022/03/24 04:13:19;;;;;;;1.90;1.33;;;22.00;38.60;;;;;;5003664;28;20034;-63
2022/03/24 04:15:46;;;;;;;1.83;1.40;;;22.00;38.60;;;;;;5001513;28;20034;-63
2022/03/24 04:18:12;;;;;;;2.20;1.40;;;22.00;38.60;;;;;;5006345;28;20506;-64
2022/03/24 04:20:39;;;;;;;2.00;1.30;;;22.00;38.70;;;;;;5004141;28;20072;-60
2022/03/24 04:23:05;;;;;;;1.92;1.30;;;22.00;38.70;;;;;;5005298;28;20141;-66
2022/03/24 04:25:32;;;;;;;1.80;1.30;;;21.90;38.60;;;;;;5004981;28;20454;-63
2022/03/24 04:27:58;;;;;;;1.55;1.25;;;21.90;38.60;;;;;;5002574;28;20033;-61
2022/03/24 04:30:26;;;;;;;2.00;1.40;;;21.90;38.90;;;;;;4998552;28;20045;-66
2022/03/24 04:32:52;;;;;;;1.80;1.23;;;21.90;38.60;;;;;;5003610;28;20589;-63
2022/03/24 04:35:18;;;;;;;1.92;1.20;;;22.00;38.70;;;;;;5004702;28;20045;-66
2022/03/24 04:37:44;;;;;;;1.95;1.35;;;22.00;38.70;;;;;;5004504;28;20030;-65
2022/03/24 04:40:11;;;;;;;1.77;1.23;;;21.90;38.60;;;;;;5005000;28;20049;-59
2022/03/24 04:42:38;;;;;;;1.70;1.30;;;21.90;38.70;;;;;;5003891;28;20033;-65
2022/03/24 04:45:04;;;;;;;2.30;1.40;;;21.90;38.70;;;;;;4996378;28;20092;-60
2022/03/24 04:47:29;;;;;;;2.00;1.30;;;21.90;38.70;;;;;;4997700;28;20041;-66
2022/03/24 04:49:55;;;;;;;2.05;1.30;;;21.90;38.60;;;;;;5004908;28;20064;-63
2022/03/24 04:52:22;;;;;;;2.10;1.38;;;21.90;38.70;;;;;;5007493;28;20430;-61
2022/03/24 04:54:48;;;;;;;1.70;1.33;;;21.90;38.70;;;;;;5001717;28;20136;-64
2022/03/24 04:57:13;;;;;;;2.10;1.30;;;21.90;38.70;;;;;;4995322;28;20390;-62
2022/03/24 04:59:39;;;;;;;1.73;1.23;;;21.90;38.70;;;;;;5002647;28;20121;-60
2022/03/24 05:02:08;;;;;;;1.65;1.10;;;21.90;38.70;;;;;;4999891;28;20498;-63
2022/03/24 05:04:34;;;;;;;2.20;1.27;;;21.90;38.70;;;;;;4998107;28;20025;-65
2022/03/24 05:07:00;;;;;;;1.88;1.20;;;21.90;38.70;;;;;;5003920;28;20034;-66
2022/03/24 05:09:25;;;;;;;1.90;1.30;;;21.90;38.70;;;;;;5002018;28;20036;-60
2022/03/24 05:11:51;;;;;;;2.00;1.30;;;21.90;38.70;;;;;;5001367;28;20105;-59
2022/03/24 05:14:17;;;;;;;2.05;1.40;;;21.90;38.70;;;;;;5003919;28;20339;-59
2022/03/24 05:16:42;;;;;;;1.60;1.20;;;21.90;38.80;;;;;;4997465;28;20518;-59
2022/03/24 05:19:08;;;;;;;1.90;1.40;;;21.90;38.80;;;;;;4998982;28;20045;-59
2022/03/24 05:21:34;;;;;;;1.80;1.20;;;21.90;38.80;;;;;;4997577;28;20022;-64
2022/03/24 05:24:00;;;;;;;1.40;1.20;;;21.90;38.80;;;;;;5000487;28;20030;-66
2022/03/24 05:26:26;;;;;;;1.50;1.20;;;21.90;38.80;;;;;;4998093;28;20018;-65
2022/03/24 05:28:53;;;;;;;2.22;1.50;;;21.90;39.40;;;;;;5002322;28;20044;-64
2022/03/24 05:31:18;;;;;;;2.50;1.40;;;21.80;38.80;;;;;;4995169;28;20042;-64
2022/03/24 05:33:45;;;;;;;1.90;1.30;;;21.80;38.80;;;;;;5002492;28;20040;-64
2022/03/24 05:36:11;;;;;;;1.70;1.20;;;21.80;38.80;;;;;;5000342;28;20018;-60
2022/03/24 05:38:37;;;;;;;2.42;1.40;;;21.80;38.80;;;;;;5000628;28;20481;-62
2022/03/24 05:41:04;;;;;;;1.90;1.30;;;21.80;38.80;;;;;;4996387;28;20029;-64
2022/03/24 05:43:30;;;;;;;1.83;1.30;;;21.80;38.90;;;;;;5005287;28;20120;-65
2022/03/24 05:45:56;;;;;;;1.90;1.30;;;21.80;38.90;;;;;;5001069;28;20044;-62
2022/03/24 05:48:22;;;;;;;2.20;1.40;;;21.80;39.40;;;;;;5001168;28;20095;-65
2022/03/24 05:50:48;;;;;;;1.55;1.17;;;21.80;38.90;;;;;;5002951;28;20109;-60
2022/03/24 05:53:14;;;;;;;1.70;1.17;;;21.80;38.90;;;;;;5002975;28;20080;-65
2022/03/24 05:55:41;;;;;;;1.90;1.25;;;21.80;38.90;;;;;;5000144;28;20033;-62
2022/03/24 05:58:07;;;;;;;1.90;1.33;;;21.80;38.90;;;;;;4999022;28;20030;-65
2022/03/24 06:00:37;;;;;;;1.67;1.17;;;21.80;38.90;;;;;;4998503;28;20046;-60
2022/03/24 06:03:03;;;;;;;1.88;1.33;;;21.80;38.90;;;;;;5000825;28;20402;-64
2022/03/24 06:05:29;;;;;;;2.00;1.20;;;21.80;39.00;;;;;;4996686;28;20556;-64
2022/03/24 06:07:56;;;;;;;1.73;1.13;;;21.80;39.00;;;;;;4996068;28;20040;-64
2022/03/24 06:10:22;;;;;;;2.08;1.30;;;21.80;39.00;;;;;;4991650;28;20037;-63
2022/03/24 06:12:47;;;;;;;2.72;1.33;;;21.80;39.00;;;;;;5001388;28;20042;-64
2022/03/24 06:15:13;;;;;;;2.00;1.30;;;21.80;39.00;;;;;;4998073;28;20038;-64
2022/03/24 06:17:39;;;;;;;1.75;1.20;;;21.80;39.10;;;;;;5003472;28;20038;-60
2022/03/24 06:20:08;;;;;;;2.08;1.20;;;21.80;39.10;;;;;;5001389;28;20116;-62
2022/03/24 06:22:50;;;;;;;1.60;1.17;;;21.80;39.00;;;;;;5004160;28;20021;-61
2022/03/24 06:25:16;;;;;;;1.83;1.17;;;21.80;39.10;;;;;;5002178;28;20109;-59
2022/03/24 06:27:42;;;;;;;2.08;1.10;;;21.70;39.00;;;;;;5003817;28;20582;-62
2022/03/24 06:30:08;;;;;;;2.70;1.58;;;21.70;39.00;;;;;;4996342;28;20022;-63
2022/03/24 06:32:34;;;;;;;2.65;1.52;;;21.80;39.10;;;;;;5001228;28;20036;-66
2022/03/24 06:35:01;;;;;;;4.40;2.03;;;21.70;39.10;;;;;;5006148;28;20053;-63
2022/03/24 06:37:27;;;;;;;4.15;1.77;;;21.80;39.90;;;;;;5006053;28;20037;-62
2022/03/24 06:39:53;;;;;;;2.97;1.60;;;21.90;40.10;;;;;;5006559;28;20153;-62
2022/03/24 06:42:19;;;;;;;3.75;1.85;;;22.20;40.10;;;;;;5005245;28;20026;-66
2022/03/24 06:44:45;;;;;;;5.00;1.80;;;22.40;40.00;;;;;;5006388;28;20477;-62
2022/03/24 06:47:11;;;;;;;3.40;1.75;;;22.70;39.70;;;;;;5001966;28;20034;-63
2022/03/24 06:49:36;;;;;;;2.97;1.70;;;23.00;39.70;;;;;;5003042;28;20038;-67
2022/03/24 06:52:03;;;;;;;3.10;1.65;;;23.10;39.50;;;;;;5004088;28;20022;-61
2022/03/24 06:54:29;;;;;;;2.00;1.30;;;23.20;39.50;;;;;;5007274;28;20034;-64
2022/03/24 06:56:54;;;;;;;2.28;1.30;;;23.30;39.70;;;;;;5006240;28;20041;-65
2022/03/24 06:59:20;;;;;;;2.20;1.10;;;23.20;39.60;;;;;;5005482;28;20518;-66
2022/03/24 07:01:47;;;;;;;2.08;1.23;;;23.10;39.60;;;;;;4999981;28;20118;-64
2022/03/24 07:04:13;;;;;;;2.70;1.13;;;23.10;39.70;;;;;;5006571;28;20033;-61
2022/03/24 07:06:40;;;;;;;2.08;1.02;;;23.00;39.80;;;;;;5002004;28;20073;-64
2022/03/24 07:09:06;;;;;;;2.03;1.10;;;23.00;40.00;;;;;;5004414;28;20120;-65
2022/03/24 07:11:32;;;;;;;2.25;1.30;;;23.00;40.30;;;;;;5004946;28;20137;-65
2022/03/24 07:13:57;;;;;;;2.22;0.95;;;23.00;40.30;;;;;;5004081;28;20033;-65
2022/03/24 07:16:23;;;;;;;2.25;1.10;;;23.00;40.20;;;;;;5003317;28;20053;-60
2022/03/24 07:18:49;;;;;;;1.83;1.02;;;23.00;40.20;;;;;;5003627;28;20525;-66
2022/03/24 07:21:14;;;;;;;2.13;1.10;;;23.00;40.20;;;;;;5000908;28;20057;-66
2022/03/24 07:23:40;;;;;;;1.73;1.05;;;23.10;40.30;;;;;;5006100;28;20045;-64
2022/03/24 07:26:06;;;;;;;1.92;1.10;;;23.10;40.40;;;;;;5006280;28;20041;-64
2022/03/24 07:28:31;;;;;;;2.30;1.10;;;23.10;40.70;;;;;;5006444;28;20103;-60
2022/03/24 07:30:57;;;;;;;1.58;1.02;;;23.10;40.50;;;;;;5003553;28;20053;-62
2022/03/24 07:33:22;;;;;;;1.67;1.10;;;23.10;40.50;;;;;;5003727;28;20383;-66
2022/03/24 07:35:48;;;;;;;1.40;1.00;;;23.20;40.60;;;;;;5001742;28;20033;-64
2022/03/24 07:38:14;;;;;;;1.77;1.00;;;23.20;40.70;;;;;;5004571;28;20034;-65
2022/03/24 07:40:40;;;;;;;1.20;0.90;;;23.20;40.80;;;;;;5002415;28;20021;-66
2022/03/24 07:43:06;;;;;;;1.92;1.02;;;23.20;40.80;;;;;;5004833;28;20105;-65
2022/03/24 07:45:37;;;;;;;2.58;0.95;;;23.20;40.80;;;;;;5001619;28;20030;-60
2022/03/24 07:48:25;;;;;;;1.98;1.00;;;23.20;40.90;;;;;;5005359;28;20037;-65
2022/03/24 07:50:52;;;;;;;2.80;1.02;;;23.30;40.90;;;;;;5002317;28;20029;-66
2022/03/24 07:53:39;;;;;;;2.20;1.10;;;23.30;40.90;;;;;;5001637;28;20039;-64
2022/03/24 07:56:04;;;;;;;1.70;0.90;;;23.30;41.10;;;;;;5004606;28;20072;-62
2022/03/24 07:58:30;;;;;;;2.13;1.20;;;23.40;41.10;;;;;;5006142;28;20062;-63
2022/03/24 08:00:57;;;;;;;1.33;0.95;;;23.40;41.20;;;;;;4998964;28;20038;-61
2022/03/24 08:03:23;;;;;;;2.20;1.10;;;23.40;41.10;;;;;;4999686;28;20034;-64
2022/03/24 08:05:49;;;;;;;1.63;0.82;;;23.40;41.10;;;;;;5003538;28;20041;-66
2022/03/24 08:08:16;;;;;;;2.53;0.95;;;23.50;41.40;;;;;;5006636;28;20402;-66
2022/03/24 08:10:46;;;;;;;1.88;1.15;;;23.50;41.60;;;;;;5003108;28;20029;-61
2022/03/24 08:13:15;;;;;;;1.42;0.98;;;23.50;41.30;;;;;;5000137;28;20105;-64
2022/03/24 08:15:41;;;;;;;1.57;1.00;;;23.50;41.40;;;;;;5001824;28;20457;-60
2022/03/24 08:18:09;;;;;;;1.30;0.90;;;23.60;41.50;;;;;;5004625;28;20347;-61
2022/03/24 08:20:36;;;;;;;1.67;1.02;;;23.60;41.70;;;;;;5003740;28;20052;-62
2022/03/24 08:23:03;;;;;;;1.63;0.90;;;23.60;41.80;;;;;;5003540;28;20038;-64
2022/03/24 08:25:29;;;;;;;1.33;0.90;;;23.70;41.80;;;;;;5004029;28;20030;-64
2022/03/24 08:27:55;;;;;;;1.55;1.00;;;23.70;42.10;;;;;;5002132;28;20032;-62
2022/03/24 08:30:21;;;;;;;2.08;1.10;;;23.70;42.50;;;;;;4999908;28;20038;-65
2022/03/24 08:32:47;;;;;;;1.60;0.98;;;23.70;42.00;;;;;;5000396;28;20091;-62
2022/03/24 08:35:13;;;;;;;1.85;1.00;;;23.70;41.90;;;;;;5003820;28;20201;-65
2022/03/24 08:37:38;;;;;;;1.73;1.08;;;23.80;42.10;;;;;;4998678;28;20026;-65
2022/03/24 08:40:05;;;;;;;1.27;1.00;;;23.80;42.40;;;;;;5001284;28;20176;-63
2022/03/24 08:42:31;;;;;;;1.92;0.98;;;23.90;42.40;;;;;;5003490;28;20072;-64
2022/03/24 08:44:56;;;;;;;2.45;1.20;;;23.80;42.50;;;;;;5001356;28;20395;-62
2022/03/24 08:47:23;;;;;;;1.20;0.90;;;23.90;42.10;;;;;;5001592;28;20449;-66
2022/03/24 08:49:48;;;;;;;1.13;0.90;;;23.90;42.30;;;;;;5014896;28;20029;-63
2022/03/24 08:52:14;;;;;;;1.80;1.00;;;23.90;42.30;;;;;;5001691;28;20029;-67
2022/03/24 08:54:40;;;;;;;1.58;1.00;;;24.00;42.30;;;;;;5000045;28;20503;-63
2022/03/24 08:57:05;;;;;;;1.83;0.93;;;24.00;42.50;;;;;;5003601;28;20537;-64
2022/03/24 08:59:31;;;;;;;2.72;1.70;;;24.00;42.50;;;;;;5001037;28;20034;-65
2022/03/24 09:01:58;;;;;;;3.60;1.98;;;24.00;39.50;;;;;;4999662;28;20425;-62
2022/03/24 09:04:26;;;;;;;3.80;2.20;;;24.00;38.90;;;;;;5002019;28;20133;-66
2022/03/24 09:06:53;;;;;;;3.80;2.10;;;24.00;38.00;;;;;;5002176;28;20032;-63
2022/03/24 09:09:20;;;;;;;3.40;2.30;;;24.00;37.80;;;;;;5001745;28;20053;-63
2022/03/24 09:11:45;;;;;;;4.00;2.13;;;24.00;37.90;;;;;;5003223;28;20026;-64
2022/03/24 09:14:11;;;;;;;3.28;2.10;;;23.90;37.60;;;;;;5003587;28;20423;-64
2022/03/24 09:16:36;;;;;;;3.85;2.25;;;23.90;37.60;;;;;;4993547;28;20072;-61
2022/03/24 09:19:02;;;;;;;4.20;2.20;;;24.00;37.50;;;;;;5002736;28;20038;-64
2022/03/24 09:21:28;;;;;;;3.25;2.08;;;23.90;37.30;;;;;;4999089;28;20145;-63
2022/03/24 09:23:54;;;;;;;2.97;2.00;;;23.90;37.40;;;;;;4994215;28;20121;-61
2022/03/24 09:26:19;;;;;;;3.28;2.13;;;24.00;37.40;;;;;;5002067;28;20550;-62
2022/03/24 09:28:47;;;;;;;3.63;2.20;;;23.90;37.40;;;;;;5003600;28;20042;-62
2022/03/24 09:31:12;;;;;;;5.07;2.40;;;23.90;37.20;;;;;;4996672;28;20393;-67
2022/03/24 09:33:38;;;;;;;3.28;2.15;;;23.90;37.20;;;;;;5000684;28;20025;-66
2022/03/24 09:36:04;;;;;;;3.65;2.20;;;23.90;37.20;;;;;;5001895;28;20037;-65
2022/03/24 09:38:30;;;;;;;2.78;1.80;;;23.90;37.30;;;;;;5001970;28;20442;-65
2022/03/24 09:40:56;;;;;;;3.22;2.05;;;23.90;37.20;;;;;;5001366;28;20121;-62
2022/03/24 09:43:22;;;;;;;3.83;2.10;;;23.90;37.20;;;;;;5002671;28;20030;-65
2022/03/24 09:45:48;;;;;;;3.50;2.10;;;23.90;37.20;;;;;;4997560;28;20029;-67
2022/03/24 09:48:15;;;;;;;3.47;2.25;;;23.90;37.20;;;;;;5001042;28;20048;-65
2022/03/24 09:50:44;;;;;;;3.22;2.20;;;23.90;37.30;;;;;;4999434;28;20030;-65
2022/03/24 09:53:10;;;;;;;3.33;2.00;;;23.90;37.20;;;;;;5002439;28;20018;-62
2022/03/24 09:55:37;;;;;;;3.20;2.20;;;23.90;37.30;;;;;;5001997;28;20045;-66
2022/03/24 09:58:06;;;;;;;3.55;2.13;;;23.90;37.20;;;;;;5003783;28;20046;-62
2022/03/24 10:00:31;;;;;;;2.75;1.90;;;23.90;37.20;;;;;;4996757;28;20314;-64
2022/03/24 10:03:07;;;;;;;5.05;2.28;;;23.90;37.30;;;;;;5001569;28;20030;-67
2022/03/24 10:05:33;;;;;;;3.05;1.98;;;23.90;37.20;;;;;;4998178;28;20454;-64
2022/03/24 10:08:05;;;;;;;3.15;2.10;;;23.90;37.30;;;;;;4996724;28;20040;-65
2022/03/24 10:10:34;;;;;;;3.35;2.08;;;23.90;37.20;;;;;;5001948;28;20033;-64
2022/03/24 10:13:04;;;;;;;2.67;1.90;;;23.90;37.30;;;;;;5010127;28;20483;-63
2022/03/24 10:15:30;;;;;;;3.80;2.20;;;23.90;37.80;;;;;;4998366;28;20430;-61
2022/03/24 10:17:57;;;;;;;3.50;2.05;;;23.90;37.40;;;;;;5002423;28;20064;-61
2022/03/24 10:20:28;;;;;;;2.92;2.10;;;23.90;37.40;;;;;;5002319;28;20053;-64
2022/03/24 10:23:05;;;;;;;2.90;2.00;;;23.90;37.30;;;;;;5001641;28;20041;-63
2022/03/24 10:25:37;;;;;;;3.15;2.08;;;23.90;37.30;;;;;;4999384;28;20133;-62
2022/03/24 10:28:05;;;;;;;2.85;1.70;;;23.90;37.30;;;;;;5003500;28;20029;-59
2022/03/24 10:30:55;;;;;;;2.90;2.00;;;23.90;37.30;;;;;;5000529;28;20073;-63
2022/03/24 10:33:36;;;;;;;2.65;1.88;;;23.90;37.20;;;;;;5000641;28;20522;-63
2022/03/24 10:36:09;;;;;;;2.83;1.83;;;24.00;37.30;;;;;;5000643;28;20465;-63
2022/03/24 10:38:40;;;;;;;3.55;1.90;;;23.90;37.30;;;;;;4996762;28;20412;-64
2022/03/24 10:41:21;;;;;;;2.90;1.80;;;24.00;37.40;;;;;;5000674;28;20021;-63
2022/03/24 10:43:49;;;;;;;2.42;1.90;;;24.00;37.30;;;;;;5001327;28;20371;-65
2022/03/24 10:46:17;;;;;;;4.15;1.92;;;24.00;37.30;;;;;;4998732;28;20405;-66
2022/03/24 10:48:43;;;;;;;2.90;2.00;;;23.90;37.20;;;;;;4993609;28;20108;-61
2022/03/24 10:51:09;;;;;;;3.17;1.80;;;24.00;37.20;;;;;;5002994;28;20033;-66
2022/03/24 10:53:42;;;;;;;2.70;1.92;;;24.00;37.30;;;;;;5001461;28;20029;-66
2022/03/24 10:56:13;;;;;;;2.80;1.88;;;24.00;37.20;;;;;;5001730;28;20065;-62
2022/03/24 10:58:52;;;;;;;3.88;1.90;;;24.00;37.30;;;;;;4999658;28;20136;-61
2022/03/24 11:01:21;;;;;;;2.50;1.60;;;24.00;37.30;;;;;;4995759;28;20066;-66
2022/03/24 11:03:47;;;;;;;3.28;2.10;;;24.00;37.30;;;;;;5001507;28;20022;-62
2022/03/24 11:06:18;;;;;;;2.75;1.90;;;24.00;37.30;;;;;;5003229;28;20026;-62
2022/03/24 11:08:50;;;;;;;3.05;1.90;;;24.00;37.30;;;;;;5002120;28;20128;-61
2022/03/24 11:11:16;;;;;;;3.13;2.20;;;24.00;37.30;;;;;;4998982;28;20117;-64
2022/03/24 11:13:46;;;;;;;3.30;2.00;;;24.00;37.20;;;;;;5003097;28;20084;-66
2022/03/24 11:16:13;;;;;;;2.53;1.70;;;24.00;37.20;;;;;;5001072;28;20034;-64
2022/03/24 11:18:40;;;;;;;3.22;1.77;;;24.10;37.20;;;;;;5002843;28;20088;-68
2022/03/24 11:21:15;;;;;;;2.95;2.20;;;24.00;37.10;;;;;;5004644;28;20034;-62
2022/03/24 11:23:41;;;;;;;3.42;2.17;;;24.00;37.10;;;;;;5004802;28;20052;-63
2022/03/24 11:26:09;;;;;;;4.07;2.00;;;24.00;37.20;;;;;;4998005;28;20030;-68
2022/03/24 11:28:36;;;;;;;2.90;1.92;;;23.90;37.00;;;;;;4996585;28;20045;-65
2022/03/24 11:31:10;;;;;;;2.80;1.90;;;24.00;37.10;;;;;;4994599;28;20038;-65
2022/03/24 11:33:51;;;;;;;2.70;1.88;;;24.00;37.10;;;;;;4994489;28;20132;-67
2022/03/24 11:36:19;;;;;;;2.47;1.60;;;24.00;37.60;;;;;;4996462;28;20022;-65
2022/03/24 11:38:51;;;;;;;3.38;2.10;;;24.00;37.20;;;;;;4998737;28;20149;-67
2022/03/24 11:41:38;;;;;;;2.85;1.80;;;24.00;37.20;;;;;;4992554;28;20189;-65
2022/03/24 11:44:10;;;;;;;3.25;2.00;;;23.90;37.20;;;;;;5002218;28;20036;-62
2022/03/24 11:46:55;;;;;;;2.75;1.80;;;23.90;37.10;;;;;;5000358;28;20056;-67
2022/03/24 11:49:26;;;;;;;2.65;1.90;;;23.90;37.20;;;;;;4994901;28;20065;-65
2022/03/24 11:51:57;;;;;;;2.88;2.00;;;24.00;37.30;;;;;;4998970;28;20430;-62
2022/03/24 11:54:35;;;;;;;2.60;1.80;;;23.90;37.20;;;;;;5000581;28;20057;-66
2022/03/24 11:57:29;;;;;;;3.20;1.90;;;23.90;37.20;;;;;;4998297;28;20398;-63
2022/03/24 12:00:13;;;;;;;3.13;1.70;;;23.90;37.20;;;;;;4999190;28;20994;-67
2022/03/24 12:02:48;;;;;;;3.05;1.90;;;23.90;37.30;;;;;;4998240;28;20037;-63
2022/03/24 12:05:14;;;;;;;3.45;1.90;;;23.90;37.30;;;;;;4998465;28;20049;-64
2022/03/24 12:07:41;;;;;;;3.00;1.90;;;23.90;37.30;;;;;;5006722;28;20339;-66
2022/03/24 12:10:10;;;;;;;3.00;2.00;;;23.90;37.40;;;;;;5009744;28;20109;-64
2022/03/24 12:12:38;;;;;;;3.08;1.90;;;23.90;37.40;;;;;;5011098;28;20018;-63
2022/03/24 12:15:24;;;;;;;3.10;2.20;;;23.90;37.40;;;;;;4999995;28;20069;-65
2022/03/24 12:18:06;;;;;;;4.45;1.88;;;23.90;37.40;;;;;;4996243;28;20060;-61
2022/03/24 12:20:42;;;;;;;3.78;2.08;;;23.90;37.50;;;;;;5000390;28;20076;-65
2022/03/24 12:23:08;;;;;;;3.40;1.90;;;23.90;37.60;;;;;;5001629;28;20100;-67
2022/03/24 12:25:35;;;;;;;3.10;2.00;;;23.90;37.60;;;;;;5005329;28;20014;-64
2022/03/24 12:28:06;;;;;;;3.15;1.90;;;23.90;37.70;;;;;;5002914;28;21550;-62
2022/03/24 12:30:51;;;;;;;3.25;2.10;;;24.00;37.90;;;;;;5001148;28;20038;-63
2022/03/24 12:33:31;;;;;;;3.72;1.95;;;24.00;38.00;;;;;;5007061;28;20026;-63
2022/03/24 12:35:58;;;;;;;3.15;1.90;;;24.00;38.00;;;;;;5003974;28;20462;-64
2022/03/24 12:38:46;;;;;;;3.17;1.90;;;24.00;38.00;;;;;;5004291;28;20470;-63
2022/03/24 12:41:11;;;;;;;3.20;1.85;;;24.00;38.00;;;;;;5011994;28;20414;-63
2022/03/24 12:44:05;;;;;;;4.20;1.80;;;24.00;38.00;;;;;;5007806;28;20034;-60
2022/03/24 12:46:40;;;;;;;3.53;2.10;;;24.00;38.10;;;;;;5015327;28;20025;-67
2022/03/24 12:49:11;;;;;;;4.28;2.00;;;24.00;38.10;;;;;;5007968;28;20041;-60
2022/03/24 12:52:01;;;;;;;3.40;2.05;;;24.10;38.20;;;;;;5017360;28;20091;-64